Time;durP1;ratioP1;P1;durP2;ratioP2;P2;SDS_P1;SDS_P2;PMS_P1;PMS_P2;Temp;Humidity;BMP_temperature;BMP_pressure;BME280_temperature;BME280_humidity;BME280_pressure;Samples;Min_cycle;Max_cycle;Signal;HPM_P1;HPM_P2
2023/03/10 00:00:44;;;;;;;4.45;1.42;;;;;;;6.99;64.45;94548.53;5052968;28;20559;-71
2023/03/10 00:03:11;;;;;;;5.60;1.30;;;;;;;7.03;64.42;94557.56;5050404;28;20119;-71
2023/03/10 00:05:38;;;;;;;2.97;1.35;;;;;;;7.11;63.70;94553.19;5052234;28;20080;-71
2023/03/10 00:08:05;;;;;;;3.85;1.15;;;;;;;7.16;62.87;94555.66;5051736;28;20539;-72
2023/03/10 00:10:32;;;;;;;3.35;1.40;;;;;;;7.27;62.66;94543.25;5036870;28;20060;-71
2023/03/10 00:12:58;;;;;;;7.47;1.75;;;;;;;7.27;62.04;94533.19;5032238;28;20540;-71
2023/03/10 00:15:24;;;;;;;4.57;1.50;;;;;;;7.30;61.67;94529.00;5031763;28;20578;-72
2023/03/10 00:17:54;;;;;;;3.03;1.20;;;;;;;7.38;61.14;94525.41;5031900;28;20053;-71
2023/03/10 00:20:21;;;;;;;5.28;1.50;;;;;;;7.46;60.76;94527.16;5031316;28;20272;-71
2023/03/10 00:22:48;;;;;;;5.07;1.35;;;;;;;7.51;60.41;94524.22;5032094;28;20052;-71
2023/03/10 00:25:15;;;;;;;2.13;0.98;;;;;;;7.53;60.44;94519.25;5032246;28;20038;-71
2023/03/10 00:27:42;;;;;;;3.33;0.90;;;;;;;7.44;60.67;94517.81;5031871;28;20103;-72
2023/03/10 00:30:09;;;;;;;5.60;1.15;;;;;;;7.40;60.54;94520.41;5039227;28;20041;-71
2023/03/10 00:32:36;;;;;;;2.72;1.00;;;;;;;7.43;60.20;94511.63;5071088;28;20496;-71
2023/03/10 00:35:05;;;;;;;2.60;0.80;;;;;;;7.28;60.62;94504.19;5055367;28;20052;-72
2023/03/10 00:37:31;;;;;;;4.15;1.02;;;;;;;7.34;60.39;94497.41;5051531;28;20045;-71
2023/03/10 00:39:58;;;;;;;1.83;0.80;;;;;;;7.31;60.23;94492.72;5051307;28;20057;-71
2023/03/10 00:42:24;;;;;;;1.98;1.10;;;;;;;7.28;60.56;94482.53;5042750;28;20437;-71
2023/03/10 00:44:51;;;;;;;3.60;1.10;;;;;;;7.20;60.93;94486.16;5031213;28;20099;-71
2023/03/10 00:47:17;;;;;;;1.73;1.08;;;;;;;7.15;61.33;94483.69;5028554;28;20478;-71
2023/03/10 00:49:43;;;;;;;3.67;1.00;;;;;;;7.15;61.08;94478.28;5031283;28;20053;-71
2023/03/10 00:52:11;;;;;;;2.60;1.20;;;;;;;7.06;61.36;94475.72;5031006;28;20068;-72
2023/03/10 00:54:39;;;;;;;5.38;1.20;;;;;;;7.05;61.37;94469.53;5031436;28;20107;-71
2023/03/10 00:57:06;;;;;;;4.45;1.00;;;;;;;7.02;60.98;94474.81;5031940;28;20073;-71
2023/03/10 00:59:32;;;;;;;4.28;1.50;;;;;;;6.93;61.87;94464.09;5060550;28;20052;-71
2023/03/10 01:01:59;;;;;;;2.53;1.00;;;;;;;6.98;61.07;94458.47;5051493;28;20044;-72
2023/03/10 01:04:25;;;;;;;2.97;1.10;;;;;;;6.90;61.84;94455.91;5046085;28;20041;-71
2023/03/10 01:06:52;;;;;;;5.47;1.02;;;;;;;6.90;61.72;94462.09;5050839;28;20518;-71
2023/03/10 01:09:19;;;;;;;3.35;0.90;;;;;;;6.84;62.52;94452.66;5048458;28;20044;-72
2023/03/10 01:11:46;;;;;;;2.38;0.93;;;;;;;6.83;62.04;94451.03;5042921;28;20046;-71
2023/03/10 01:14:14;;;;;;;2.97;0.90;;;;;;;6.82;62.55;94444.06;5030904;28;20492;-71
2023/03/10 01:16:41;;;;;;;7.10;1.13;;;;;;;6.74;62.18;94436.88;5030964;28;20053;-71
2023/03/10 01:19:07;;;;;;;3.03;0.93;;;;;;;6.62;62.53;94434.16;5030419;28;20056;-71
2023/03/10 01:21:36;;;;;;;3.22;1.13;;;;;;;6.69;62.56;94426.28;5033064;28;20045;-73
2023/03/10 01:24:04;;;;;;;2.90;0.90;;;;;;;6.66;63.23;94416.13;5050422;28;20056;-72
2023/03/10 01:26:32;;;;;;;4.57;0.90;;;;;;;6.57;63.24;94420.88;5050381;28;20053;-71
2023/03/10 01:28:59;;;;;;;2.40;0.88;;;;;;;6.56;62.94;94408.47;5050759;28;20484;-71
2023/03/10 01:31:25;;;;;;;1.77;1.00;;;;;;;6.49;62.82;94400.94;5064678;28;20060;-71
2023/03/10 01:33:52;;;;;;;2.63;0.90;;;;;;;6.56;61.72;94403.06;5065372;28;20052;-72
2023/03/10 01:36:21;;;;;;;1.70;0.80;;;;;;;6.51;62.06;94394.06;5049681;28;20041;-72
2023/03/10 01:38:48;;;;;;;2.50;0.90;;;;;;;6.44;62.51;94388.44;5051071;28;20049;-72
2023/03/10 01:41:16;;;;;;;2.35;0.70;;;;;;;6.40;62.90;94378.63;5050407;28;20126;-71
2023/03/10 01:43:45;;;;;;;2.40;0.80;;;;;;;6.37;62.72;94380.13;5050881;28;20056;-72
2023/03/10 01:46:37;;;;;;;2.45;0.80;;;;;;;6.33;62.34;94373.81;5049414;28;20040;-72
2023/03/10 01:49:08;;;;;;;4.78;0.80;;;;;;;6.26;62.95;94370.88;5050075;28;20497;-72
2023/03/10 01:51:35;;;;;;;3.25;1.05;;;;;;;6.25;62.55;94367.38;5050675;28;20045;-71
2023/03/10 01:54:06;;;;;;;2.85;0.93;;;;;;;6.23;62.81;94364.25;5050205;28;20496;-72
2023/03/10 01:56:34;;;;;;;1.45;0.90;;;;;;;6.23;62.98;94358.03;5050755;28;20548;-72
2023/03/10 01:59:02;;;;;;;1.25;0.70;;;;;;;6.21;62.74;94338.66;5050247;28;20053;-72
2023/03/10 02:01:29;;;;;;;3.30;1.02;;;;;;;6.15;63.27;94331.91;5065030;28;20048;-71
2023/03/10 02:04:00;;;;;;;4.80;1.00;;;;;;;6.13;63.65;94334.19;5070272;28;20071;-71
2023/03/10 02:06:27;;;;;;;2.47;0.77;;;;;;;6.08;63.40;94321.69;5069612;28;20052;-71
2023/03/10 02:08:57;;;;;;;1.65;0.90;;;;;;;6.04;63.85;94317.28;5070189;28;20048;-71
2023/03/10 02:11:24;;;;;;;3.35;0.88;;;;;;;6.01;63.93;94319.56;5030979;28;20056;-71
2023/03/10 02:13:51;;;;;;;1.70;0.70;;;;;;;5.96;64.09;94314.38;5030167;28;20056;-72
2023/03/10 02:16:20;;;;;;;2.10;0.80;;;;;;;5.97;64.45;94307.84;5029653;28;20136;-72
2023/03/10 02:18:47;;;;;;;1.55;0.90;;;;;;;5.92;64.66;94299.97;5030171;28;20042;-71
2023/03/10 02:21:23;;;;;;;2.15;0.90;;;;;;;5.86;64.90;94306.69;5030506;28;20053;-72
2023/03/10 02:23:58;;;;;;;3.42;0.98;;;;;;;5.85;64.40;94299.72;5030110;28;20049;-72
2023/03/10 02:26:34;;;;;;;3.97;1.23;;;;;;;5.85;64.95;94298.94;5029279;28;20057;-72
2023/03/10 02:29:07;;;;;;;3.28;0.95;;;;;;;5.78;64.96;94296.78;5030057;28;20046;-71
2023/03/10 02:31:34;;;;;;;3.42;0.70;;;;;;;5.79;65.27;94286.75;5052102;28;20049;-71
2023/03/10 02:34:01;;;;;;;2.35;1.00;;;;;;;5.79;65.13;94279.44;5038628;28;20057;-72
2023/03/10 02:36:27;;;;;;;2.30;0.85;;;;;;;5.76;65.10;94274.72;5029010;28;20381;-72
2023/03/10 02:38:54;;;;;;;2.58;0.93;;;;;;;5.75;65.37;94273.16;5029768;28;20053;-71
2023/03/10 02:41:23;;;;;;;4.05;0.93;;;;;;;5.72;65.27;94271.13;5029170;28;20064;-72
2023/03/10 02:43:50;;;;;;;4.03;0.93;;;;;;;5.76;65.06;94263.94;5029944;28;20053;-71
2023/03/10 02:46:18;;;;;;;2.85;0.90;;;;;;;5.76;65.07;94258.53;5030024;28;20519;-71
2023/03/10 02:48:45;;;;;;;2.97;0.93;;;;;;;5.79;65.26;94257.81;5041743;28;20052;-72
2023/03/10 02:51:16;;;;;;;3.20;0.93;;;;;;;5.83;65.26;94247.16;5049246;28;20049;-72
2023/03/10 02:53:43;;;;;;;1.98;0.80;;;;;;;5.88;65.16;94250.41;5049619;28;20053;-72
2023/03/10 02:56:09;;;;;;;3.70;1.02;;;;;;;5.89;65.45;94241.16;5048845;28;20045;-72
2023/03/10 02:58:36;;;;;;;2.05;0.85;;;;;;;5.94;65.26;94246.38;5032495;28;20448;-71
2023/03/10 03:01:03;;;;;;;3.40;0.98;;;;;;;5.95;65.25;94245.28;5051827;28;20420;-72
2023/03/10 03:03:31;;;;;;;1.23;0.70;;;;;;;5.93;65.30;94254.81;5069440;28;20052;-71
2023/03/10 03:05:58;;;;;;;4.00;1.00;;;;;;;5.96;65.13;94246.84;5069302;28;20048;-71
2023/03/10 03:08:25;;;;;;;1.98;0.90;;;;;;;5.96;65.24;94243.34;5046525;28;20435;-71
2023/03/10 03:10:51;;;;;;;4.53;1.00;;;;;;;5.97;65.44;94248.41;5030920;28;20046;-71
2023/03/10 03:13:18;;;;;;;3.53;1.08;;;;;;;5.94;66.28;94232.88;5033026;28;20046;-72
2023/03/10 03:15:44;;;;;;;2.63;1.10;;;;;;;6.01;66.01;94226.91;5033184;28;20038;-72
2023/03/10 03:18:11;;;;;;;2.45;1.25;;;;;;;6.00;66.18;94226.13;5032871;28;20045;-72
2023/03/10 03:20:40;;;;;;;3.42;1.10;;;;;;;5.98;66.24;94222.97;5040694;28;20045;-71
2023/03/10 03:23:07;;;;;;;2.80;1.20;;;;;;;5.96;66.58;94219.03;5052638;28;20056;-71
2023/03/10 03:25:35;;;;;;;1.77;1.00;;;;;;;5.92;66.94;94213.53;5052940;28;20511;-71
2023/03/10 03:28:02;;;;;;;2.33;1.10;;;;;;;6.00;66.72;94220.72;5052785;28;20053;-73
2023/03/10 03:30:29;;;;;;;2.80;1.00;;;;;;;6.00;66.79;94209.09;5059457;28;20055;-71
2023/03/10 03:32:55;;;;;;;2.88;1.02;;;;;;;6.03;66.98;94207.66;5055692;28;20055;-71
2023/03/10 03:35:24;;;;;;;3.38;1.05;;;;;;;6.01;67.09;94206.09;5033610;28;20053;-71
2023/03/10 03:37:53;;;;;;;2.45;1.25;;;;;;;6.03;67.16;94208.44;5032602;28;20049;-71
2023/03/10 03:40:20;;;;;;;2.85;0.93;;;;;;;6.12;66.51;94208.31;5032365;28;20099;-71
2023/03/10 03:42:49;;;;;;;3.03;1.20;;;;;;;6.11;66.44;94210.22;5032595;28;20104;-71
2023/03/10 03:45:18;;;;;;;2.90;1.00;;;;;;;6.06;66.94;94209.69;5031988;28;20420;-71
2023/03/10 03:47:46;;;;;;;3.10;1.00;;;;;;;6.14;67.19;94214.16;5038384;28;20048;-71
2023/03/10 03:50:14;;;;;;;2.20;1.20;;;;;;;6.18;67.24;94223.16;5052274;28;20048;-72
2023/03/10 03:52:41;;;;;;;3.15;0.95;;;;;;;6.19;66.67;94228.22;5052634;28;20495;-71
2023/03/10 03:55:11;;;;;;;1.77;0.90;;;;;;;6.32;66.23;94222.75;5037926;28;20041;-71
2023/03/10 03:57:38;;;;;;;2.58;1.17;;;;;;;6.36;66.24;94227.13;5032465;28;20056;-71
2023/03/10 04:00:07;;;;;;;3.17;0.98;;;;;;;6.32;65.76;94225.47;5038800;28;20048;-71
2023/03/10 04:02:35;;;;;;;3.15;1.10;;;;;;;6.14;66.45;94219.56;5071906;28;20055;-71
2023/03/10 04:05:02;;;;;;;3.92;1.15;;;;;;;6.13;67.11;94255.81;5072153;28;20044;-71
2023/03/10 04:07:29;;;;;;;3.72;1.33;;;;;;;6.04;67.76;94255.16;5040363;28;20049;-72
2023/03/10 04:09:55;;;;;;;1.70;1.05;;;;;;;6.11;67.96;94247.25;5032520;28;20437;-71
2023/03/10 04:12:24;;;;;;;4.05;0.93;;;;;;;5.96;67.72;94279.25;5031797;28;20053;-72
2023/03/10 04:14:50;;;;;;;1.65;0.80;;;;;;;5.88;67.98;94276.63;5032108;28;20137;-71
2023/03/10 04:17:17;;;;;;;1.67;0.95;;;;;;;5.87;67.97;94270.44;5031380;28;20551;-71
2023/03/10 04:19:43;;;;;;;1.88;0.98;;;;;;;5.94;68.60;94275.31;5031802;28;20045;-71
2023/03/10 04:22:10;;;;;;;2.05;0.90;;;;;;;5.82;69.07;94273.38;5031391;28;20049;-71
2023/03/10 04:24:38;;;;;;;2.75;1.10;;;;;;;5.98;68.83;94277.00;5032035;28;20049;-72
2023/03/10 04:27:04;;;;;;;4.20;1.45;;;;;;;6.04;69.21;94274.84;5031469;28;20500;-72
2023/03/10 04:29:32;;;;;;;1.80;1.00;;;;;;;5.87;69.49;94283.16;5032078;28;20127;-71
2023/03/10 04:31:58;;;;;;;5.85;1.10;;;;;;;5.90;69.14;94291.38;5050460;28;20067;-71
2023/03/10 04:34:25;;;;;;;2.70;1.08;;;;;;;5.75;69.85;94314.44;5050994;28;20827;-72
2023/03/10 04:36:52;;;;;;;1.52;0.80;;;;;;;5.60;69.94;94317.03;5051051;28;20136;-72
2023/03/10 04:39:19;;;;;;;3.63;1.42;;;;;;;5.55;69.60;94319.94;5031424;28;20068;-72
2023/03/10 04:41:45;;;;;;;4.28;1.10;;;;;;;5.49;69.79;94336.34;5031620;28;20045;-72
2023/03/10 04:44:11;;;;;;;3.55;1.00;;;;;;;5.33;69.42;94321.94;5031038;28;20255;-73
2023/03/10 04:46:39;;;;;;;4.40;0.70;;;;;;;5.39;68.77;94315.19;5031242;28;20045;-71
2023/03/10 04:49:06;;;;;;;2.47;0.80;;;;;;;5.42;68.74;94309.09;5030887;28;20538;-71
2023/03/10 04:51:33;;;;;;;3.33;0.80;;;;;;;5.60;68.35;94298.13;5035748;28;20053;-71
2023/03/10 04:54:00;;;;;;;2.72;0.90;;;;;;;5.68;67.84;94299.91;5032489;28;20075;-72
2023/03/10 04:56:27;;;;;;;1.25;0.70;;;;;;;5.79;67.13;94292.94;5050731;28;20519;-72
2023/03/10 04:58:53;;;;;;;2.75;0.80;;;;;;;5.77;66.21;94300.59;5051305;28;20060;-72
2023/03/10 05:01:20;;;;;;;2.30;0.80;;;;;;;5.81;65.08;94304.22;5064104;28;20036;-72
2023/03/10 05:03:48;;;;;;;2.13;0.73;;;;;;;5.98;64.12;94305.91;5070797;28;20049;-72
2023/03/10 05:06:17;;;;;;;2.67;0.93;;;;;;;6.06;63.83;94299.63;5044032;28;20496;-72
2023/03/10 05:08:44;;;;;;;3.70;1.00;;;;;;;6.16;63.62;94303.75;5048858;28;20504;-72
2023/03/10 05:11:11;;;;;;;2.13;0.70;;;;;;;6.23;62.86;94309.41;5050567;28;20048;-71
2023/03/10 05:13:37;;;;;;;4.20;1.27;;;;;;;6.24;63.19;94309.06;5050872;28;20045;-73
2023/03/10 05:16:04;;;;;;;2.30;0.82;;;;;;;6.35;62.84;94305.88;5050164;28;20041;-71
2023/03/10 05:18:31;;;;;;;1.45;0.65;;;;;;;6.54;63.60;94304.16;5049744;28;20496;-72
2023/03/10 05:20:59;;;;;;;3.67;0.88;;;;;;;6.62;63.74;94305.13;5050480;28;20068;-71
2023/03/10 05:23:25;;;;;;;3.20;0.90;;;;;;;6.72;63.86;94307.38;5050341;28;20048;-71
2023/03/10 05:25:52;;;;;;;2.70;1.05;;;;;;;6.75;64.36;94309.38;5050553;28;20053;-71
2023/03/10 05:28:18;;;;;;;1.75;0.98;;;;;;;6.82;64.42;94308.78;5050216;28;20053;-71
2023/03/10 05:30:45;;;;;;;3.85;1.02;;;;;;;6.89;65.11;94309.00;5051724;28;20045;-71
2023/03/10 05:33:11;;;;;;;5.15;1.30;;;;;;;7.06;65.36;94314.13;5049583;28;20400;-72
2023/03/10 05:35:38;;;;;;;5.05;1.20;;;;;;;7.19;65.37;94311.34;5050394;28;20136;-72
2023/03/10 05:38:06;;;;;;;2.58;1.20;;;;;;;7.29;66.02;94310.84;5050064;28;20047;-72
2023/03/10 05:40:32;;;;;;;3.05;0.98;;;;;;;7.37;65.90;94318.03;5050303;28;20537;-72
2023/03/10 05:43:01;;;;;;;6.68;1.13;;;;;;;7.49;66.04;94315.25;5051009;28;20052;-73
2023/03/10 05:45:27;;;;;;;5.43;1.40;;;;;;;7.60;66.57;94315.53;5051206;28;20041;-73
2023/03/10 05:47:54;;;;;;;3.25;1.08;;;;;;;7.66;66.37;94313.34;5051535;28;20048;-72
2023/03/10 05:50:21;;;;;;;4.10;1.17;;;;;;;7.83;65.97;94313.00;5050709;28;20045;-72
2023/03/10 05:52:47;;;;;;;3.78;0.90;;;;;;;7.90;65.95;94318.59;5051384;28;20496;-72
2023/03/10 05:55:18;;;;;;;3.58;1.10;;;;;;;7.93;66.29;94311.69;5048988;28;20037;-72
2023/03/10 05:57:46;;;;;;;3.90;0.98;;;;;;;8.02;66.33;94310.38;5067665;28;20052;-72
2023/03/10 06:00:14;;;;;;;4.28;1.05;;;;;;;8.13;66.05;94305.19;5042795;28;20086;-72
2023/03/10 06:02:42;;;;;;;3.42;1.38;;;;;;;8.22;65.74;94308.50;5062262;28;20077;-72
2023/03/10 06:05:12;;;;;;;2.13;0.88;;;;;;;8.27;65.97;94307.44;5049781;28;20396;-72
2023/03/10 06:07:39;;;;;;;4.63;1.10;;;;;;;8.26;65.53;94297.75;5043782;28;20037;-72
2023/03/10 06:10:06;;;;;;;3.35;0.80;;;;;;;8.29;65.17;94297.03;5031655;28;20045;-72
2023/03/10 06:12:34;;;;;;;2.65;0.93;;;;;;;8.27;65.39;94299.31;5031834;28;20132;-71
2023/03/10 06:15:01;;;;;;;3.13;1.10;;;;;;;8.22;65.60;94305.00;5030747;28;20503;-72
2023/03/10 06:17:28;;;;;;;3.85;1.02;;;;;;;8.23;65.60;94303.88;5029956;28;20059;-72
2023/03/10 06:19:54;;;;;;;5.32;1.10;;;;;;;8.21;65.57;94314.28;5030173;28;20064;-72
2023/03/10 06:22:21;;;;;;;2.42;0.95;;;;;;;8.23;65.73;94298.44;5026709;28;20049;-72
2023/03/10 06:24:47;;;;;;;2.85;1.20;;;;;;;8.27;66.09;94293.91;5027961;28;20054;-74
2023/03/10 06:27:14;;;;;;;2.83;1.20;;;;;;;8.25;66.63;94299.69;5027966;28;20053;-72
2023/03/10 06:29:41;;;;;;;3.47;1.10;;;;;;;8.27;66.19;94278.41;5027547;28;20041;-72
2023/03/10 06:32:08;;;;;;;2.78;0.98;;;;;;;8.28;66.42;94276.47;5057280;28;20045;-72
2023/03/10 06:34:34;;;;;;;3.85;1.23;;;;;;;8.31;66.69;94286.63;5048445;28;20144;-72
2023/03/10 06:37:01;;;;;;;2.90;1.20;;;;;;;8.26;67.19;94282.25;5049049;28;20045;-72
2023/03/10 06:39:28;;;;;;;4.72;1.17;;;;;;;8.25;67.77;94288.06;5050671;28;20303;-72
2023/03/10 06:41:54;;;;;;;2.80;1.00;;;;;;;8.21;67.95;94284.47;5049674;28;20049;-72
2023/03/10 06:44:21;;;;;;;3.50;1.10;;;;;;;8.32;68.00;94271.94;5050259;28;20041;-72
2023/03/10 06:46:49;;;;;;;4.97;1.20;;;;;;;8.30;68.51;94266.06;5052821;28;20127;-72
2023/03/10 06:49:15;;;;;;;5.15;1.10;;;;;;;8.41;67.94;94260.91;5053533;28;20052;-71
2023/03/10 06:51:42;;;;;;;4.93;1.60;;;;;;;8.45;68.07;94262.53;5053900;28;20044;-72
2023/03/10 06:54:08;;;;;;;5.45;2.05;;;;;;;8.50;67.78;94259.56;5054287;28;20069;-72
2023/03/10 06:56:35;;;;;;;3.67;1.33;;;;;;;8.62;67.77;94245.09;5055264;28;20067;-72
2023/03/10 06:59:01;;;;;;;4.20;1.80;;;;;;;8.76;67.08;94252.72;5054592;28;20045;-72
2023/03/10 07:01:29;;;;;;;3.92;1.48;;;;;;;8.86;66.93;94254.84;5069523;28;20055;-71
2023/03/10 07:03:59;;;;;;;5.80;1.67;;;;;;;8.81;67.38;94247.00;5056646;28;20074;-72
2023/03/10 07:06:26;;;;;;;4.85;1.40;;;;;;;8.89;67.57;94235.16;5055724;28;20069;-72
2023/03/10 07:08:53;;;;;;;3.10;1.50;;;;;;;8.86;67.57;94246.72;5054337;28;20053;-72
2023/03/10 07:11:20;;;;;;;6.93;2.25;;;;;;;8.81;67.78;94230.72;5053178;28;20076;-72
2023/03/10 07:13:46;;;;;;;4.15;1.35;;;;;;;8.85;67.81;94231.59;5055377;28;20037;-72
2023/03/10 07:16:13;;;;;;;5.75;1.10;;;;;;;8.87;67.97;94219.25;5054749;28;20049;-72
2023/03/10 07:18:40;;;;;;;5.05;1.33;;;;;;;8.87;68.09;94229.28;5056127;28;20060;-72
2023/03/10 07:21:09;;;;;;;6.20;1.35;;;;;;;8.92;67.82;94248.00;5055158;28;20041;-72
2023/03/10 07:23:35;;;;;;;4.47;1.75;;;;;;;9.05;67.38;94229.63;5057634;28;20408;-72
2023/03/10 07:26:04;;;;;;;3.85;1.50;;;;;;;9.29;67.01;94226.59;5056339;28;20059;-72
2023/03/10 07:28:31;;;;;;;6.30;1.60;;;;;;;9.64;66.05;94231.03;5056068;28;20052;-71
2023/03/10 07:30:57;;;;;;;4.78;1.40;;;;;;;10.08;64.75;94230.56;5066937;28;20056;-72
2023/03/10 07:33:23;;;;;;;3.53;1.40;;;;;;;10.31;62.79;94222.38;5077251;28;20051;-72
2023/03/10 07:35:50;;;;;;;6.30;2.00;;;;;;;10.31;62.85;94222.38;5078877;28;20052;-72
2023/03/10 07:38:18;;;;;;;5.38;1.27;;;;;;;10.21;63.15;94212.88;5076411;28;20275;-73
2023/03/10 07:40:44;;;;;;;6.75;1.30;;;;;;;10.27;62.76;94199.78;5078505;28;20056;-72
2023/03/10 07:43:11;;;;;;;3.13;1.30;;;;;;;10.30;62.38;94199.03;5078413;28;20048;-72
2023/03/10 07:45:38;;;;;;;3.75;1.30;;;;;;;10.39;62.56;94207.72;5077921;28;20049;-72
2023/03/10 07:48:05;;;;;;;3.78;1.42;;;;;;;10.24;63.07;94195.88;5075749;28;20044;-72
2023/03/10 07:50:31;;;;;;;4.30;1.33;;;;;;;10.30;62.35;94188.16;5076022;28;20045;-72
2023/03/10 07:52:58;;;;;;;4.00;1.40;;;;;;;10.34;62.04;94183.56;5074180;28;20119;-71
2023/03/10 07:55:26;;;;;;;5.05;1.30;;;;;;;10.36;62.17;94182.03;5072206;28;20044;-72
2023/03/10 07:57:55;;;;;;;6.30;1.50;;;;;;;10.54;62.17;94193.13;5071645;28;20495;-72
2023/03/10 08:00:22;;;;;;;4.43;1.33;;;;;;;10.70;61.65;94182.84;5071858;28;20049;-72
2023/03/10 08:02:51;;;;;;;3.47;1.40;;;;;;;10.76;61.44;94187.97;5071976;28;20044;-72
2023/03/10 08:05:17;;;;;;;4.00;1.50;;;;;;;10.71;61.25;94186.34;5072266;28;20050;-72
2023/03/10 08:07:44;;;;;;;3.80;1.08;;;;;;;10.62;61.18;94178.47;5072413;28;20063;-72
2023/03/10 08:10:12;;;;;;;3.97;1.40;;;;;;;10.52;61.59;94179.13;5071979;28;20040;-72
2023/03/10 08:12:40;;;;;;;3.95;1.00;;;;;;;10.20;62.66;94178.69;5072254;28;20036;-72
2023/03/10 08:15:07;;;;;;;5.15;1.10;;;;;;;10.21;62.51;94180.25;5071754;28;20045;-74
2023/03/10 08:17:34;;;;;;;3.92;1.20;;;;;;;9.98;62.95;94174.09;5071946;28;20055;-71
2023/03/10 08:20:00;;;;;;;3.20;1.20;;;;;;;9.96;63.52;94181.81;5071921;28;20049;-71
2023/03/10 08:22:27;;;;;;;3.40;1.13;;;;;;;10.06;63.74;94171.09;5072035;28;20041;-71
2023/03/10 08:24:54;;;;;;;2.05;0.80;;;;;;;10.23;62.27;94182.59;5071929;28;20056;-72
2023/03/10 08:27:21;;;;;;;2.50;0.90;;;;;;;9.97;63.56;94170.59;5071522;28;20384;-72
2023/03/10 08:29:49;;;;;;;2.80;0.93;;;;;;;10.09;62.47;94162.22;5071666;28;20041;-71
2023/03/10 08:32:16;;;;;;;3.80;1.30;;;;;;;10.26;62.55;94160.13;5070920;28;20052;-72
2023/03/10 08:34:43;;;;;;;3.63;1.08;;;;;;;10.37;62.24;94163.75;5071859;28;20051;-72
2023/03/10 08:37:10;;;;;;;5.68;1.20;;;;;;;10.45;62.25;94168.16;5071080;28;20079;-72
2023/03/10 08:39:36;;;;;;;4.85;1.30;;;;;;;10.52;61.48;94165.50;5071980;28;20053;-72
2023/03/10 08:42:03;;;;;;;2.00;0.90;;;;;;;10.66;61.03;94171.13;5071133;28;20049;-72
2023/03/10 08:44:29;;;;;;;2.92;1.10;;;;;;;10.80;60.74;94161.53;5071486;28;20048;-72
2023/03/10 08:46:57;;;;;;;4.30;1.38;;;;;;;11.09;59.74;94163.41;5071400;28;20045;-72
2023/03/10 08:49:24;;;;;;;5.07;1.25;;;;;;;11.02;60.62;94163.34;5071228;28;20055;-72
2023/03/10 08:51:50;;;;;;;3.65;1.27;;;;;;;11.10;60.65;94161.47;5071535;28;20056;-72
2023/03/10 08:54:19;;;;;;;3.38;1.05;;;;;;;10.90;60.70;94160.88;5071009;28;20049;-72
2023/03/10 08:56:46;;;;;;;4.05;1.10;;;;;;;10.93;60.81;94155.47;5071141;28;20041;-72
2023/03/10 08:59:12;;;;;;;4.70;1.27;;;;;;;11.06;60.23;94153.25;5070785;28;20041;-73
2023/03/10 09:01:39;;;;;;;2.70;1.10;;;;;;;11.13;60.24;94160.72;5070913;28;20037;-73
2023/03/10 09:04:09;;;;;;;2.67;1.20;;;;;;;11.13;60.63;94164.22;5070670;28;20131;-74
2023/03/10 09:06:36;;;;;;;3.10;1.00;;;;;;;11.31;60.25;94164.38;5071171;28;20055;-73
2023/03/10 09:09:03;;;;;;;2.63;1.23;;;;;;;11.01;60.78;94167.22;5069747;28;20052;-73
2023/03/10 09:11:32;;;;;;;1.70;1.00;;;;;;;11.11;60.44;94163.81;5070457;28;20044;-73
2023/03/10 09:14:00;;;;;;;3.63;1.00;;;;;;;11.10;59.98;94164.97;5071138;28;20557;-73
2023/03/10 09:16:27;;;;;;;3.15;1.10;;;;;;;11.04;60.51;94165.69;5070239;28;20040;-74
2023/03/10 09:18:54;;;;;;;3.45;1.23;;;;;;;11.32;60.44;94162.44;5071198;28;20048;-73
2023/03/10 09:21:22;;;;;;;2.47;0.98;;;;;;;11.81;58.49;94170.25;5070604;28;20325;-73
2023/03/10 09:23:51;;;;;;;5.18;1.17;;;;;;;12.28;56.10;94166.69;5071020;28;20074;-72
2023/03/10 09:26:18;;;;;;;3.90;1.20;;;;;;;12.83;54.39;94167.69;5070897;28;20067;-71
2023/03/10 09:28:48;;;;;;;4.88;1.60;;;;;;;13.36;53.07;94167.06;5071246;28;20048;-73
2023/03/10 09:31:17;;;;;;;4.78;1.30;;;;;;;13.51;51.80;94169.41;5070907;28;20051;-74
2023/03/10 09:33:43;;;;;;;5.85;1.17;;;;;;;13.56;52.76;94160.03;5071619;28;20060;-72
2023/03/10 09:36:10;;;;;;;2.80;1.20;;;;;;;13.18;52.37;94156.84;5071443;28;20049;-72
2023/03/10 09:38:38;;;;;;;4.32;1.35;;;;;;;13.10;52.27;94155.25;5072661;28;20053;-72
2023/03/10 09:41:18;;;;;;;4.03;1.23;;;;;;;13.49;52.10;94154.56;5072623;28;20075;-72
2023/03/10 09:43:51;;;;;;;5.68;1.35;;;;;;;14.21;50.00;94152.56;5072719;28;20072;-72
2023/03/10 09:46:24;;;;;;;3.38;1.10;;;;;;;14.99;48.53;94162.50;5071415;28;20514;-72
2023/03/10 09:48:59;;;;;;;3.30;1.42;;;;;;;14.78;48.92;94166.91;5071465;28;20411;-72
2023/03/10 09:51:28;;;;;;;4.35;1.40;;;;;;;15.45;47.60;94153.19;5070872;28;20048;-72
2023/03/10 09:54:20;;;;;;;4.00;1.42;;;;;;;14.92;48.15;94160.56;5070868;28;20056;-72
2023/03/10 09:56:46;;;;;;;4.18;1.48;;;;;;;15.15;47.28;94160.06;5068721;28;20455;-71
2023/03/10 09:59:16;;;;;;;5.97;1.70;;;;;;;14.73;48.07;94169.28;5071657;28;20443;-71
2023/03/10 10:01:46;;;;;;;2.70;1.20;;;;;;;13.45;51.57;94175.66;5070507;28;20045;-71
2023/03/10 10:04:17;;;;;;;3.33;1.30;;;;;;;13.15;52.96;94178.69;5069950;28;20241;-72
2023/03/10 10:06:47;;;;;;;3.20;1.75;;;;;;;12.66;54.32;94180.88;5070069;28;20049;-72
2023/03/10 10:09:24;;;;;;;2.83;1.10;;;;;;;12.39;55.50;94182.34;5070017;28;20052;-71
2023/03/10 10:11:51;;;;;;;4.20;1.98;;;;;;;11.91;56.90;94191.41;5070473;28;20048;-71
2023/03/10 10:14:20;;;;;;;2.75;1.40;;;;;;;11.74;57.03;94198.25;5069981;28;20044;-71
2023/03/10 10:16:55;;;;;;;5.25;1.23;;;;;;;11.63;57.42;94202.03;5070050;28;20407;-71
2023/03/10 10:19:24;;;;;;;3.42;1.40;;;;;;;11.38;58.70;94197.16;5069003;28;20408;-71
2023/03/10 10:21:57;;;;;;;3.72;1.52;;;;;;;11.36;59.37;94201.41;5069810;28;20135;-73
2023/03/10 10:24:25;;;;;;;;;;;;;;;11.32;59.91;94200.59;5069889;28;20492;-72
2023/03/10 10:26:52;;;;;;;4.07;1.40;;;;;;;11.32;59.44;94197.88;5068329;28;20383;-72
2023/03/10 10:29:22;;;;;;;2.55;1.92;;;;;;;11.34;59.51;94204.53;5069534;28;20052;-72
2023/03/10 10:32:06;;;;;;;4.22;1.58;;;;;;;11.17;61.07;94219.53;5069595;28;20575;-72
2023/03/10 10:34:33;;;;;;;5.82;1.60;;;;;;;10.77;64.82;94249.41;5069600;28;20407;-71
2023/03/10 10:37:00;;;;;;;5.35;0.70;;;;;;;9.89;67.45;94253.19;5069543;28;20059;-72
2023/03/10 10:39:31;;;;;;;1.95;0.70;;;;;;;9.36;71.62;94253.09;5069386;28;20433;-72
2023/03/10 10:42:13;;;;;;;1.65;0.70;;;;;;;9.03;74.28;94243.56;5069652;28;20048;-73
2023/03/10 10:44:41;;;;;;;0.77;0.40;;;;;;;8.99;75.08;94247.38;5069388;28;20056;-73
2023/03/10 10:47:24;;;;;;;0.57;0.32;;;;;;;9.19;73.08;94245.38;5069309;28;20470;-74
2023/03/10 10:49:51;;;;;;;0.65;0.20;;;;;;;9.22;72.87;94250.88;5069733;28;20052;-73
2023/03/10 10:52:22;;;;;;;1.95;0.38;;;;;;;9.19;71.75;94283.41;5069118;28;20519;-73
2023/03/10 10:54:55;;;;;;;2.65;0.25;;;;;;;9.04;69.58;94276.94;5069798;28;20131;-72
2023/03/10 10:57:25;;;;;;;0.30;0.10;;;;;;;8.86;70.98;94282.00;5068862;28;20048;-72
2023/03/10 10:59:51;;;;;;;0.40;0.20;;;;;;;8.63;72.38;94258.28;5069604;28;20419;-74
2023/03/10 11:02:24;;;;;;;1.55;0.10;;;;;;;8.43;73.12;94264.84;5068635;28;20041;-71
2023/03/10 11:04:50;;;;;;;0.73;0.10;;;;;;;8.39;74.78;94258.53;5069691;28;20045;-74
2023/03/10 11:07:20;;;;;;;1.25;0.13;;;;;;;8.33;73.50;94254.50;5069120;28;20053;-72
2023/03/10 11:09:47;;;;;;;0.70;0.30;;;;;;;8.24;72.19;94256.63;5069456;28;20049;-73
2023/03/10 11:12:20;;;;;;;0.30;0.20;;;;;;;8.16;74.06;94253.00;5068986;28;20045;-72
2023/03/10 11:15:01;;;;;;;0.85;0.30;;;;;;;7.94;75.29;94251.72;5069726;28;20044;-73
2023/03/10 11:17:33;;;;;;;1.02;0.20;;;;;;;7.87;75.08;94238.00;5068897;28;20068;-72
2023/03/10 11:20:13;;;;;;;0.52;0.20;;;;;;;7.90;74.39;94225.69;5069441;28;20051;-72
2023/03/10 11:22:44;;;;;;;2.47;0.20;;;;;;;7.97;73.23;94221.19;5069463;28;20037;-72
2023/03/10 11:25:20;;;;;;;0.08;0.05;;;;;;;8.08;72.96;94219.50;5069321;28;20045;-72
2023/03/10 11:28:04;;;;;;;1.95;0.10;;;;;;;8.15;73.66;94216.19;5070574;28;20522;-72
2023/03/10 11:30:33;;;;;;;0.32;0.22;;;;;;;8.26;70.58;94200.13;5069790;28;20049;-73
2023/03/10 11:33:10;;;;;;;0.40;0.10;;;;;;;8.43;67.90;94210.59;5073106;28;20040;-72
2023/03/10 11:35:42;;;;;;;0.52;0.30;;;;;;;8.60;67.31;94195.81;5073803;28;20048;-72
2023/03/10 11:38:19;;;;;;;0.95;0.25;;;;;;;8.65;65.08;94206.38;5072794;28;20079;-73
2023/03/10 11:40:50;;;;;;;1.50;0.43;;;;;;;8.72;66.21;94184.00;5074506;28;20044;-73
2023/03/10 11:43:28;;;;;;;0.93;0.30;;;;;;;8.84;65.40;94181.16;5073822;28;20076;-73